sensor_id;sensor_type;location;lat;lon;timestamp;P1;durP1;ratioP1;P2;durP2;ratioP2
9801;SDS011;4940;50.900;4.672;2023-12-20T00:01:35;92.32;;;84.65;;
9801;SDS011;4940;50.900;4.672;2023-12-20T00:04:02;91.28;;;84.07;;
9801;SDS011;4940;50.900;4.672;2023-12-20T00:06:30;85.93;;;78.82;;
9801;SDS011;4940;50.900;4.672;2023-12-20T00:08:58;93.40;;;86.28;;
9801;SDS011;4940;50.900;4.672;2023-12-20T00:11:25;87.97;;;81.57;;
9801;SDS011;4940;50.900;4.672;2023-12-20T00:13:53;92.70;;;85.72;;
9801;SDS011;4940;50.900;4.672;2023-12-20T00:16:20;90.93;;;83.97;;
9801;SDS011;4940;50.900;4.672;2023-12-20T00:18:48;94.53;;;87.57;;
9801;SDS011;4940;50.900;4.672;2023-12-20T00:21:15;104.35;;;95.75;;
9801;SDS011;4940;50.900;4.672;2023-12-20T00:23:42;94.72;;;87.35;;
9801;SDS011;4940;50.900;4.672;2023-12-20T00:26:11;98.45;;;90.78;;
9801;SDS011;4940;50.900;4.672;2023-12-20T00:28:39;97.80;;;90.07;;
9801;SDS011;4940;50.900;4.672;2023-12-20T00:31:06;93.75;;;86.32;;
9801;SDS011;4940;50.900;4.672;2023-12-20T00:33:33;102.10;;;93.75;;
9801;SDS011;4940;50.900;4.672;2023-12-20T00:36:01;92.32;;;85.50;;
9801;SDS011;4940;50.900;4.672;2023-12-20T00:38:28;93.22;;;86.40;;
9801;SDS011;4940;50.900;4.672;2023-12-20T00:40:56;98.10;;;90.50;;
9801;SDS011;4940;50.900;4.672;2023-12-20T00:43:24;90.72;;;84.03;;
9801;SDS011;4940;50.900;4.672;2023-12-20T00:45:52;90.50;;;83.60;;
9801;SDS011;4940;50.900;4.672;2023-12-20T00:48:20;87.30;;;80.53;;
9801;SDS011;4940;50.900;4.672;2023-12-20T00:50:48;76.82;;;70.90;;
9801;SDS011;4940;50.900;4.672;2023-12-20T00:53:15;84.65;;;77.72;;
9801;SDS011;4940;50.900;4.672;2023-12-20T00:55:42;85.80;;;79.05;;
9801;SDS011;4940;50.900;4.672;2023-12-20T00:58:10;80.38;;;72.90;;
9801;SDS011;4940;50.900;4.672;2023-12-20T01:00:39;82.07;;;75.30;;
9801;SDS011;4940;50.900;4.672;2023-12-20T01:03:07;87.80;;;81.43;;
9801;SDS011;4940;50.900;4.672;2023-12-20T01:05:34;88.05;;;81.55;;
9801;SDS011;4940;50.900;4.672;2023-12-20T01:08:02;93.40;;;86.63;;
9801;SDS011;4940;50.900;4.672;2023-12-20T01:10:29;96.10;;;89.22;;
9801;SDS011;4940;50.900;4.672;2023-12-20T01:12:57;80.93;;;74.60;;
9801;SDS011;4940;50.900;4.672;2023-12-20T01:15:24;84.13;;;76.07;;
9801;SDS011;4940;50.900;4.672;2023-12-20T01:17:53;86.53;;;79.55;;
9801;SDS011;4940;50.900;4.672;2023-12-20T01:20:22;88.25;;;81.75;;
9801;SDS011;4940;50.900;4.672;2023-12-20T01:22:49;86.05;;;79.18;;
9801;SDS011;4940;50.900;4.672;2023-12-20T01:25:17;92.35;;;85.07;;
9801;SDS011;4940;50.900;4.672;2023-12-20T01:27:44;90.60;;;84.10;;
9801;SDS011;4940;50.900;4.672;2023-12-20T01:30:11;85.72;;;79.05;;
9801;SDS011;4940;50.900;4.672;2023-12-20T01:32:39;90.47;;;83.85;;
9801;SDS011;4940;50.900;4.672;2023-12-20T01:35:08;87.57;;;80.80;;
9801;SDS011;4940;50.900;4.672;2023-12-20T01:37:35;93.90;;;87.40;;
9801;SDS011;4940;50.900;4.672;2023-12-20T01:40:02;98.95;;;91.90;;
9801;SDS011;4940;50.900;4.672;2023-12-20T01:42:30;100.45;;;93.35;;
9801;SDS011;4940;50.900;4.672;2023-12-20T01:44:58;94.78;;;87.95;;
9801;SDS011;4940;50.900;4.672;2023-12-20T01:47:25;87.72;;;81.03;;
9801;SDS011;4940;50.900;4.672;2023-12-20T01:49:53;101.97;;;92.85;;
9801;SDS011;4940;50.900;4.672;2023-12-20T01:52:23;89.47;;;82.22;;
9801;SDS011;4940;50.900;4.672;2023-12-20T01:54:52;94.32;;;87.30;;
9801;SDS011;4940;50.900;4.672;2023-12-20T01:57:22;94.05;;;86.55;;
9801;SDS011;4940;50.900;4.672;2023-12-20T01:59:49;92.75;;;85.78;;
9801;SDS011;4940;50.900;4.672;2023-12-20T02:02:17;88.15;;;81.43;;
9801;SDS011;4940;50.900;4.672;2023-12-20T02:04:44;87.55;;;80.53;;
9801;SDS011;4940;50.900;4.672;2023-12-20T02:07:12;87.85;;;81.10;;
9801;SDS011;4940;50.900;4.672;2023-12-20T02:09:41;91.80;;;84.72;;
9801;SDS011;4940;50.900;4.672;2023-12-20T02:12:09;92.10;;;84.88;;
9801;SDS011;4940;50.900;4.672;2023-12-20T02:14:36;88.90;;;82.13;;
9801;SDS011;4940;50.900;4.672;2023-12-20T02:17:03;90.80;;;83.32;;
9801;SDS011;4940;50.900;4.672;2023-12-20T02:19:31;89.70;;;82.68;;
9801;SDS011;4940;50.900;4.672;2023-12-20T02:22:06;88.38;;;81.30;;
9801;SDS011;4940;50.900;4.672;2023-12-20T02:24:34;88.60;;;81.65;;
9801;SDS011;4940;50.900;4.672;2023-12-20T02:27:02;93.70;;;86.43;;
9801;SDS011;4940;50.900;4.672;2023-12-20T02:29:32;98.22;;;90.80;;
9801;SDS011;4940;50.900;4.672;2023-12-20T02:31:59;97.47;;;90.10;;
9801;SDS011;4940;50.900;4.672;2023-12-20T02:34:27;92.13;;;85.13;;
9801;SDS011;4940;50.900;4.672;2023-12-20T02:36:54;93.57;;;86.13;;
9801;SDS011;4940;50.900;4.672;2023-12-20T02:39:23;91.18;;;83.63;;
9801;SDS011;4940;50.900;4.672;2023-12-20T02:41:50;92.45;;;85.53;;
9801;SDS011;4940;50.900;4.672;2023-12-20T02:44:18;92.10;;;84.65;;
9801;SDS011;4940;50.900;4.672;2023-12-20T02:46:45;95.38;;;88.10;;
9801;SDS011;4940;50.900;4.672;2023-12-20T02:49:13;96.80;;;88.90;;
9801;SDS011;4940;50.900;4.672;2023-12-20T02:51:40;100.03;;;92.60;;
9801;SDS011;4940;50.900;4.672;2023-12-20T02:54:07;97.50;;;90.32;;
9801;SDS011;4940;50.900;4.672;2023-12-20T02:56:36;93.07;;;86.07;;
9801;SDS011;4940;50.900;4.672;2023-12-20T02:59:03;87.13;;;80.25;;
9801;SDS011;4940;50.900;4.672;2023-12-20T03:01:33;99.40;;;91.13;;
9801;SDS011;4940;50.900;4.672;2023-12-20T03:04:01;91.45;;;84.63;;
9801;SDS011;4940;50.900;4.672;2023-12-20T03:06:28;91.72;;;83.93;;
9801;SDS011;4940;50.900;4.672;2023-12-20T03:08:56;89.45;;;82.57;;
9801;SDS011;4940;50.900;4.672;2023-12-20T03:11:26;84.78;;;77.78;;
9801;SDS011;4940;50.900;4.672;2023-12-20T03:13:55;88.18;;;81.22;;
9801;SDS011;4940;50.900;4.672;2023-12-20T03:16:22;90.53;;;83.85;;
9801;SDS011;4940;50.900;4.672;2023-12-20T03:18:51;84.47;;;77.20;;
9801;SDS011;4940;50.900;4.672;2023-12-20T03:21:18;90.00;;;82.53;;
9801;SDS011;4940;50.900;4.672;2023-12-20T03:23:46;95.47;;;88.10;;
9801;SDS011;4940;50.900;4.672;2023-12-20T03:26:13;90.30;;;83.32;;
9801;SDS011;4940;50.900;4.672;2023-12-20T03:28:41;86.22;;;79.10;;
9801;SDS011;4940;50.900;4.672;2023-12-20T03:31:10;83.93;;;76.70;;
9801;SDS011;4940;50.900;4.672;2023-12-20T03:33:37;91.78;;;84.63;;
9801;SDS011;4940;50.900;4.672;2023-12-20T03:36:05;86.80;;;79.85;;
9801;SDS011;4940;50.900;4.672;2023-12-20T03:38:32;87.22;;;80.53;;
9801;SDS011;4940;50.900;4.672;2023-12-20T03:41:00;86.20;;;79.30;;
9801;SDS011;4940;50.900;4.672;2023-12-20T03:43:27;82.15;;;75.32;;
9801;SDS011;4940;50.900;4.672;2023-12-20T03:45:54;93.57;;;86.03;;
9801;SDS011;4940;50.900;4.672;2023-12-20T03:48:25;96.03;;;89.10;;
9801;SDS011;4940;50.900;4.672;2023-12-20T03:50:53;101.80;;;94.70;;
9801;SDS011;4940;50.900;4.672;2023-12-20T03:53:20;105.45;;;97.40;;
9801;SDS011;4940;50.900;4.672;2023-12-20T03:55:48;103.60;;;96.35;;
9801;SDS011;4940;50.900;4.672;2023-12-20T03:58:15;92.78;;;85.35;;
9801;SDS011;4940;50.900;4.672;2023-12-20T04:00:42;90.57;;;83.65;;
9801;SDS011;4940;50.900;4.672;2023-12-20T04:03:10;87.60;;;80.88;;
9801;SDS011;4940;50.900;4.672;2023-12-20T04:05:40;92.07;;;85.00;;
9801;SDS011;4940;50.900;4.672;2023-12-20T04:08:07;91.78;;;84.45;;
9801;SDS011;4940;50.900;4.672;2023-12-20T04:10:35;80.40;;;73.70;;
9801;SDS011;4940;50.900;4.672;2023-12-20T04:13:03;78.25;;;71.93;;
9801;SDS011;4940;50.900;4.672;2023-12-20T04:15:31;84.43;;;77.07;;
9801;SDS011;4940;50.900;4.672;2023-12-20T04:17:58;75.65;;;69.35;;
9801;SDS011;4940;50.900;4.672;2023-12-20T04:20:26;78.35;;;72.13;;
9801;SDS011;4940;50.900;4.672;2023-12-20T04:22:54;75.93;;;69.93;;
9801;SDS011;4940;50.900;4.672;2023-12-20T04:25:21;74.63;;;67.47;;
9801;SDS011;4940;50.900;4.672;2023-12-20T04:27:49;72.80;;;66.90;;
9801;SDS011;4940;50.900;4.672;2023-12-20T04:30:17;82.35;;;76.13;;
9801;SDS011;4940;50.900;4.672;2023-12-20T04:32:44;73.88;;;67.63;;
9801;SDS011;4940;50.900;4.672;2023-12-20T04:35:11;92.43;;;85.00;;
9801;SDS011;4940;50.900;4.672;2023-12-20T04:37:38;75.20;;;69.50;;
9801;SDS011;4940;50.900;4.672;2023-12-20T04:40:07;75.20;;;69.07;;
9801;SDS011;4940;50.900;4.672;2023-12-20T04:42:35;72.18;;;66.22;;
9801;SDS011;4940;50.900;4.672;2023-12-20T04:45:03;70.30;;;64.53;;
9801;SDS011;4940;50.900;4.672;2023-12-20T04:47:30;70.03;;;64.20;;
9801;SDS011;4940;50.900;4.672;2023-12-20T04:49:58;69.60;;;62.97;;
9801;SDS011;4940;50.900;4.672;2023-12-20T04:52:25;73.10;;;67.55;;
9801;SDS011;4940;50.900;4.672;2023-12-20T04:54:53;68.43;;;62.55;;
9801;SDS011;4940;50.900;4.672;2023-12-20T04:57:21;86.78;;;78.75;;
9801;SDS011;4940;50.900;4.672;2023-12-20T04:59:48;80.97;;;74.35;;
9801;SDS011;4940;50.900;4.672;2023-12-20T05:02:16;69.75;;;63.72;;
9801;SDS011;4940;50.900;4.672;2023-12-20T05:04:42;68.38;;;62.22;;
9801;SDS011;4940;50.900;4.672;2023-12-20T05:07:10;67.05;;;61.30;;
9801;SDS011;4940;50.900;4.672;2023-12-20T05:09:38;68.90;;;63.45;;
9801;SDS011;4940;50.900;4.672;2023-12-20T05:12:05;71.90;;;66.10;;
9801;SDS011;4940;50.900;4.672;2023-12-20T05:14:34;79.45;;;73.38;;
9801;SDS011;4940;50.900;4.672;2023-12-20T05:17:02;77.20;;;70.68;;
9801;SDS011;4940;50.900;4.672;2023-12-20T05:19:29;71.82;;;66.22;;
9801;SDS011;4940;50.900;4.672;2023-12-20T05:22:00;70.95;;;65.53;;
9801;SDS011;4940;50.900;4.672;2023-12-20T05:24:28;65.57;;;60.42;;
9801;SDS011;4940;50.900;4.672;2023-12-20T05:26:55;77.22;;;70.68;;
9801;SDS011;4940;50.900;4.672;2023-12-20T05:29:22;75.57;;;69.72;;
9801;SDS011;4940;50.900;4.672;2023-12-20T05:31:51;73.07;;;67.13;;
9801;SDS011;4940;50.900;4.672;2023-12-20T05:34:18;70.03;;;64.22;;
9801;SDS011;4940;50.900;4.672;2023-12-20T05:36:46;69.28;;;63.58;;
9801;SDS011;4940;50.900;4.672;2023-12-20T05:39:13;74.85;;;68.63;;
9801;SDS011;4940;50.900;4.672;2023-12-20T05:41:41;69.65;;;63.53;;
9801;SDS011;4940;50.900;4.672;2023-12-20T05:44:08;66.03;;;60.85;;
9801;SDS011;4940;50.900;4.672;2023-12-20T05:46:35;64.93;;;59.63;;
9801;SDS011;4940;50.900;4.672;2023-12-20T05:49:04;63.13;;;57.95;;
9801;SDS011;4940;50.900;4.672;2023-12-20T05:51:32;64.47;;;58.90;;
9801;SDS011;4940;50.900;4.672;2023-12-20T05:53:59;68.00;;;61.78;;
9801;SDS011;4940;50.900;4.672;2023-12-20T05:56:26;65.30;;;59.97;;
9801;SDS011;4940;50.900;4.672;2023-12-20T05:58:54;65.57;;;59.67;;
9801;SDS011;4940;50.900;4.672;2023-12-20T06:01:21;61.70;;;56.10;;
9801;SDS011;4940;50.900;4.672;2023-12-20T06:03:49;62.00;;;56.05;;
9801;SDS011;4940;50.900;4.672;2023-12-20T06:06:17;60.58;;;54.53;;
9801;SDS011;4940;50.900;4.672;2023-12-20T06:08:45;62.10;;;56.47;;
9801;SDS011;4940;50.900;4.672;2023-12-20T06:11:12;61.55;;;55.95;;
9801;SDS011;4940;50.900;4.672;2023-12-20T06:13:40;61.90;;;56.25;;
9801;SDS011;4940;50.900;4.672;2023-12-20T06:16:07;61.45;;;55.22;;
9801;SDS011;4940;50.900;4.672;2023-12-20T06:18:35;82.67;;;76.17;;
9801;SDS011;4940;50.900;4.672;2023-12-20T06:21:03;71.35;;;65.75;;
9801;SDS011;4940;50.900;4.672;2023-12-20T06:23:33;68.75;;;63.22;;
9801;SDS011;4940;50.900;4.672;2023-12-20T06:26:01;72.32;;;66.43;;
9801;SDS011;4940;50.900;4.672;2023-12-20T06:28:28;71.95;;;65.82;;
9801;SDS011;4940;50.900;4.672;2023-12-20T06:30:56;79.13;;;73.03;;
9801;SDS011;4940;50.900;4.672;2023-12-20T06:33:23;72.55;;;66.88;;
9801;SDS011;4940;50.900;4.672;2023-12-20T06:35:51;68.82;;;63.03;;
9801;SDS011;4940;50.900;4.672;2023-12-20T06:38:18;75.30;;;69.38;;
9801;SDS011;4940;50.900;4.672;2023-12-20T06:40:47;67.18;;;61.92;;
9801;SDS011;4940;50.900;4.672;2023-12-20T06:43:14;76.05;;;70.35;;
9801;SDS011;4940;50.900;4.672;2023-12-20T06:45:42;78.68;;;72.88;;
9801;SDS011;4940;50.900;4.672;2023-12-20T06:48:09;74.15;;;68.35;;
9801;SDS011;4940;50.900;4.672;2023-12-20T06:50:38;81.03;;;74.82;;
9801;SDS011;4940;50.900;4.672;2023-12-20T06:53:06;80.93;;;74.75;;
9801;SDS011;4940;50.900;4.672;2023-12-20T06:55:34;63.28;;;58.33;;
9801;SDS011;4940;50.900;4.672;2023-12-20T06:58:04;66.80;;;61.45;;
9801;SDS011;4940;50.900;4.672;2023-12-20T07:00:32;60.13;;;54.67;;
9801;SDS011;4940;50.900;4.672;2023-12-20T07:02:59;59.08;;;53.80;;
9801;SDS011;4940;50.900;4.672;2023-12-20T07:05:27;61.20;;;55.60;;
9801;SDS011;4940;50.900;4.672;2023-12-20T07:07:54;59.17;;;54.03;;
9801;SDS011;4940;50.900;4.672;2023-12-20T07:10:24;63.08;;;57.75;;
9801;SDS011;4940;50.900;4.672;2023-12-20T07:12:52;59.03;;;54.45;;
9801;SDS011;4940;50.900;4.672;2023-12-20T07:15:21;65.25;;;59.90;;
9801;SDS011;4940;50.900;4.672;2023-12-20T07:17:49;59.85;;;54.33;;
9801;SDS011;4940;50.900;4.672;2023-12-20T07:20:16;62.60;;;57.55;;
9801;SDS011;4940;50.900;4.672;2023-12-20T07:22:44;61.55;;;56.15;;
9801;SDS011;4940;50.900;4.672;2023-12-20T07:25:11;61.17;;;56.08;;
9801;SDS011;4940;50.900;4.672;2023-12-20T07:27:39;59.45;;;53.42;;
9801;SDS011;4940;50.900;4.672;2023-12-20T07:30:07;58.47;;;53.03;;
9801;SDS011;4940;50.900;4.672;2023-12-20T07:32:36;64.47;;;59.38;;
9801;SDS011;4940;50.900;4.672;2023-12-20T07:35:04;65.78;;;60.40;;
9801;SDS011;4940;50.900;4.672;2023-12-20T07:37:31;57.88;;;52.67;;
9801;SDS011;4940;50.900;4.672;2023-12-20T07:39:59;57.08;;;52.38;;
9801;SDS011;4940;50.900;4.672;2023-12-20T07:42:26;58.08;;;53.03;;
9801;SDS011;4940;50.900;4.672;2023-12-20T07:44:53;61.53;;;56.17;;
9801;SDS011;4940;50.900;4.672;2023-12-20T07:47:21;59.08;;;54.15;;
9801;SDS011;4940;50.900;4.672;2023-12-20T07:49:49;60.77;;;55.50;;
9801;SDS011;4940;50.900;4.672;2023-12-20T07:52:17;57.95;;;53.00;;
9801;SDS011;4940;50.900;4.672;2023-12-20T07:54:44;58.35;;;53.05;;
9801;SDS011;4940;50.900;4.672;2023-12-20T07:57:12;57.40;;;51.92;;
9801;SDS011;4940;50.900;4.672;2023-12-20T07:59:39;59.30;;;53.92;;
9801;SDS011;4940;50.900;4.672;2023-12-20T08:02:07;57.83;;;52.60;;
9801;SDS011;4940;50.900;4.672;2023-12-20T08:04:34;57.13;;;51.55;;
9801;SDS011;4940;50.900;4.672;2023-12-20T08:07:03;59.22;;;53.67;;
9801;SDS011;4940;50.900;4.672;2023-12-20T08:09:30;59.88;;;54.45;;
9801;SDS011;4940;50.900;4.672;2023-12-20T08:11:59;60.97;;;55.37;;
9801;SDS011;4940;50.900;4.672;2023-12-20T08:14:26;58.47;;;52.20;;
9801;SDS011;4940;50.900;4.672;2023-12-20T08:16:53;58.47;;;52.88;;
9801;SDS011;4940;50.900;4.672;2023-12-20T08:19:21;59.60;;;53.85;;
9801;SDS011;4940;50.900;4.672;2023-12-20T08:21:48;61.20;;;55.58;;
9801;SDS011;4940;50.900;4.672;2023-12-20T08:24:17;59.92;;;54.20;;
9801;SDS011;4940;50.900;4.672;2023-12-20T08:26:44;58.95;;;53.63;;
9801;SDS011;4940;50.900;4.672;2023-12-20T08:29:12;58.28;;;52.75;;
9801;SDS011;4940;50.900;4.672;2023-12-20T08:31:39;59.22;;;53.85;;
9801;SDS011;4940;50.900;4.672;2023-12-20T08:34:06;58.33;;;52.72;;
9801;SDS011;4940;50.900;4.672;2023-12-20T08:36:34;61.70;;;55.67;;
9801;SDS011;4940;50.900;4.672;2023-12-20T08:39:01;60.25;;;54.42;;
9801;SDS011;4940;50.900;4.672;2023-12-20T08:41:32;60.40;;;54.25;;
9801;SDS011;4940;50.900;4.672;2023-12-20T08:44:00;62.10;;;56.38;;
9801;SDS011;4940;50.900;4.672;2023-12-20T08:46:27;63.13;;;57.13;;
9801;SDS011;4940;50.900;4.672;2023-12-20T08:48:54;62.25;;;56.72;;
9801;SDS011;4940;50.900;4.672;2023-12-20T08:51:22;61.33;;;55.45;;
9801;SDS011;4940;50.900;4.672;2023-12-20T08:53:50;57.33;;;52.03;;
9801;SDS011;4940;50.900;4.672;2023-12-20T08:56:18;61.45;;;56.22;;
9801;SDS011;4940;50.900;4.672;2023-12-20T08:58:47;58.45;;;53.17;;
9801;SDS011;4940;50.900;4.672;2023-12-20T09:01:14;54.00;;;48.53;;
9801;SDS011;4940;50.900;4.672;2023-12-20T09:03:41;53.75;;;48.65;;
9801;SDS011;4940;50.900;4.672;2023-12-20T09:06:09;54.35;;;48.90;;
9801;SDS011;4940;50.900;4.672;2023-12-20T09:08:37;57.88;;;52.40;;
9801;SDS011;4940;50.900;4.672;2023-12-20T09:11:04;55.75;;;50.60;;
9801;SDS011;4940;50.900;4.672;2023-12-20T09:13:32;55.65;;;50.60;;
9801;SDS011;4940;50.900;4.672;2023-12-20T09:16:00;56.72;;;50.85;;
9801;SDS011;4940;50.900;4.672;2023-12-20T09:18:28;57.20;;;51.78;;
9801;SDS011;4940;50.900;4.672;2023-12-20T09:20:55;58.22;;;52.58;;
9801;SDS011;4940;50.900;4.672;2023-12-20T09:23:23;54.60;;;49.70;;
9801;SDS011;4940;50.900;4.672;2023-12-20T09:25:50;54.63;;;49.33;;
9801;SDS011;4940;50.900;4.672;2023-12-20T09:28:17;54.60;;;49.15;;
9801;SDS011;4940;50.900;4.672;2023-12-20T09:30:45;51.35;;;46.47;;
9801;SDS011;4940;50.900;4.672;2023-12-20T09:33:14;49.38;;;44.40;;
9801;SDS011;4940;50.900;4.672;2023-12-20T09:35:42;43.85;;;39.92;;
9801;SDS011;4940;50.900;4.672;2023-12-20T09:38:09;46.65;;;42.17;;
9801;SDS011;4940;50.900;4.672;2023-12-20T09:40:38;44.78;;;40.65;;
9801;SDS011;4940;50.900;4.672;2023-12-20T09:43:08;42.85;;;38.60;;
9801;SDS011;4940;50.900;4.672;2023-12-20T09:45:40;42.42;;;38.13;;
9801;SDS011;4940;50.900;4.672;2023-12-20T09:48:07;41.67;;;37.70;;
9801;SDS011;4940;50.900;4.672;2023-12-20T09:50:38;44.50;;;40.17;;
9801;SDS011;4940;50.900;4.672;2023-12-20T09:53:07;42.40;;;38.58;;
9801;SDS011;4940;50.900;4.672;2023-12-20T09:55:36;44.22;;;39.97;;
9801;SDS011;4940;50.900;4.672;2023-12-20T09:58:04;44.20;;;40.20;;
9801;SDS011;4940;50.900;4.672;2023-12-20T10:00:33;45.72;;;41.72;;
9801;SDS011;4940;50.900;4.672;2023-12-20T10:03:01;42.03;;;38.03;;
9801;SDS011;4940;50.900;4.672;2023-12-20T10:05:29;44.88;;;40.90;;
9801;SDS011;4940;50.900;4.672;2023-12-20T10:07:58;44.63;;;40.53;;
9801;SDS011;4940;50.900;4.672;2023-12-20T10:10:26;45.60;;;41.20;;
9801;SDS011;4940;50.900;4.672;2023-12-20T10:13:03;47.55;;;42.97;;
9801;SDS011;4940;50.900;4.672;2023-12-20T10:15:32;46.70;;;42.40;;
9801;SDS011;4940;50.900;4.672;2023-12-20T10:18:00;46.85;;;42.42;;
9801;SDS011;4940;50.900;4.672;2023-12-20T10:20:27;45.53;;;41.20;;
9801;SDS011;4940;50.900;4.672;2023-12-20T10:23:02;44.78;;;40.60;;
9801;SDS011;4940;50.900;4.672;2023-12-20T10:25:32;45.72;;;41.22;;
9801;SDS011;4940;50.900;4.672;2023-12-20T10:28:11;44.15;;;39.63;;
9801;SDS011;4940;50.900;4.672;2023-12-20T10:30:39;43.88;;;39.67;;
9801;SDS011;4940;50.900;4.672;2023-12-20T10:33:07;44.03;;;39.60;;
9801;SDS011;4940;50.900;4.672;2023-12-20T10:35:35;44.90;;;40.85;;
9801;SDS011;4940;50.900;4.672;2023-12-20T10:38:05;45.00;;;40.65;;
9801;SDS011;4940;50.900;4.672;2023-12-20T10:40:34;45.45;;;41.00;;
9801;SDS011;4940;50.900;4.672;2023-12-20T10:43:03;42.92;;;39.17;;
9801;SDS011;4940;50.900;4.672;2023-12-20T10:45:30;40.72;;;36.58;;
9801;SDS011;4940;50.900;4.672;2023-12-20T10:47:58;42.55;;;38.38;;
9801;SDS011;4940;50.900;4.672;2023-12-20T10:50:26;43.15;;;39.17;;
9801;SDS011;4940;50.900;4.672;2023-12-20T10:52:55;43.03;;;38.92;;
9801;SDS011;4940;50.900;4.672;2023-12-20T10:55:24;43.17;;;39.00;;
9801;SDS011;4940;50.900;4.672;2023-12-20T10:57:52;43.53;;;39.58;;
9801;SDS011;4940;50.900;4.672;2023-12-20T11:00:24;43.00;;;38.45;;
9801;SDS011;4940;50.900;4.672;2023-12-20T11:02:52;40.78;;;37.13;;
9801;SDS011;4940;50.900;4.672;2023-12-20T11:05:24;38.75;;;35.22;;
9801;SDS011;4940;50.900;4.672;2023-12-20T11:07:58;39.17;;;35.25;;
9801;SDS011;4940;50.900;4.672;2023-12-20T11:10:34;42.20;;;38.28;;
9801;SDS011;4940;50.900;4.672;2023-12-20T11:13:10;38.90;;;35.30;;
9801;SDS011;4940;50.900;4.672;2023-12-20T11:15:43;41.75;;;37.55;;
9801;SDS011;4940;50.900;4.672;2023-12-20T11:18:11;40.30;;;36.35;;
9801;SDS011;4940;50.900;4.672;2023-12-20T11:20:39;38.30;;;35.00;;
9801;SDS011;4940;50.900;4.672;2023-12-20T11:23:07;39.85;;;36.17;;
9801;SDS011;4940;50.900;4.672;2023-12-20T11:25:47;37.97;;;34.53;;
9801;SDS011;4940;50.900;4.672;2023-12-20T11:28:16;38.60;;;34.88;;
9801;SDS011;4940;50.900;4.672;2023-12-20T11:30:47;39.15;;;35.42;;
9801;SDS011;4940;50.900;4.672;2023-12-20T11:33:17;38.78;;;35.17;;
9801;SDS011;4940;50.900;4.672;2023-12-20T11:35:48;39.58;;;35.75;;
9801;SDS011;4940;50.900;4.672;2023-12-20T11:38:16;40.33;;;36.58;;
9801;SDS011;4940;50.900;4.672;2023-12-20T11:40:43;39.88;;;35.85;;
9801;SDS011;4940;50.900;4.672;2023-12-20T11:43:12;39.13;;;35.72;;
9801;SDS011;4940;50.900;4.672;2023-12-20T11:45:56;40.30;;;36.10;;
9801;SDS011;4940;50.900;4.672;2023-12-20T11:48:29;43.33;;;39.40;;
9801;SDS011;4940;50.900;4.672;2023-12-20T11:50:57;41.60;;;37.85;;
9801;SDS011;4940;50.900;4.672;2023-12-20T11:53:25;41.55;;;38.15;;
9801;SDS011;4940;50.900;4.672;2023-12-20T11:55:53;41.47;;;37.63;;
9801;SDS011;4940;50.900;4.672;2023-12-20T11:58:22;43.08;;;39.25;;
9801;SDS011;4940;50.900;4.672;2023-12-20T12:00:49;42.63;;;38.55;;
9801;SDS011;4940;50.900;4.672;2023-12-20T12:03:17;40.97;;;37.08;;
9801;SDS011;4940;50.900;4.672;2023-12-20T12:05:46;41.00;;;37.58;;
9801;SDS011;4940;50.900;4.672;2023-12-20T12:08:14;42.63;;;38.88;;
9801;SDS011;4940;50.900;4.672;2023-12-20T12:10:42;43.60;;;39.53;;
9801;SDS011;4940;50.900;4.672;2023-12-20T12:13:09;42.95;;;39.13;;
9801;SDS011;4940;50.900;4.672;2023-12-20T12:15:38;43.72;;;39.53;;
9801;SDS011;4940;50.900;4.672;2023-12-20T12:18:07;43.88;;;39.95;;
9801;SDS011;4940;50.900;4.672;2023-12-20T12:20:35;42.95;;;38.90;;
9801;SDS011;4940;50.900;4.672;2023-12-20T12:23:03;42.78;;;38.53;;
9801;SDS011;4940;50.900;4.672;2023-12-20T12:25:32;47.65;;;43.33;;
9801;SDS011;4940;50.900;4.672;2023-12-20T12:28:01;46.72;;;42.33;;
9801;SDS011;4940;50.900;4.672;2023-12-20T12:30:28;44.65;;;40.70;;
9801;SDS011;4940;50.900;4.672;2023-12-20T12:32:57;43.80;;;39.75;;
9801;SDS011;4940;50.900;4.672;2023-12-20T12:35:24;41.97;;;38.08;;
9801;SDS011;4940;50.900;4.672;2023-12-20T12:37:52;44.65;;;40.05;;
9801;SDS011;4940;50.900;4.672;2023-12-20T12:40:19;45.08;;;41.25;;
9801;SDS011;4940;50.900;4.672;2023-12-20T12:42:46;43.95;;;40.22;;
9801;SDS011;4940;50.900;4.672;2023-12-20T12:45:14;43.35;;;39.50;;
9801;SDS011;4940;50.900;4.672;2023-12-20T12:47:42;39.42;;;35.67;;
9801;SDS011;4940;50.900;4.672;2023-12-20T12:50:10;40.33;;;36.53;;
9801;SDS011;4940;50.900;4.672;2023-12-20T12:52:38;41.10;;;37.13;;
9801;SDS011;4940;50.900;4.672;2023-12-20T12:55:05;40.03;;;36.17;;
9801;SDS011;4940;50.900;4.672;2023-12-20T12:57:33;41.45;;;37.55;;
9801;SDS011;4940;50.900;4.672;2023-12-20T13:00:00;43.60;;;39.60;;
9801;SDS011;4940;50.900;4.672;2023-12-20T13:02:29;43.28;;;39.08;;
9801;SDS011;4940;50.900;4.672;2023-12-20T13:04:56;42.67;;;38.63;;
9801;SDS011;4940;50.900;4.672;2023-12-20T13:07:27;43.15;;;39.55;;
9801;SDS011;4940;50.900;4.672;2023-12-20T13:09:54;43.45;;;39.47;;
9801;SDS011;4940;50.900;4.672;2023-12-20T13:12:22;43.65;;;39.90;;
9801;SDS011;4940;50.900;4.672;2023-12-20T13:14:49;44.40;;;40.25;;
9801;SDS011;4940;50.900;4.672;2023-12-20T13:17:17;45.42;;;41.45;;
9801;SDS011;4940;50.900;4.672;2023-12-20T13:19:44;45.17;;;41.17;;
9801;SDS011;4940;50.900;4.672;2023-12-20T13:22:12;46.92;;;42.83;;
9801;SDS011;4940;50.900;4.672;2023-12-20T13:24:40;47.75;;;43.63;;
9801;SDS011;4940;50.900;4.672;2023-12-20T13:27:09;45.90;;;41.83;;
9801;SDS011;4940;50.900;4.672;2023-12-20T13:29:37;42.95;;;39.33;;
9801;SDS011;4940;50.900;4.672;2023-12-20T13:32:04;45.25;;;41.28;;
9801;SDS011;4940;50.900;4.672;2023-12-20T13:34:32;45.47;;;40.92;;
9801;SDS011;4940;50.900;4.672;2023-12-20T13:37:00;46.97;;;43.10;;
9801;SDS011;4940;50.900;4.672;2023-12-20T13:39:27;47.10;;;42.95;;
9801;SDS011;4940;50.900;4.672;2023-12-20T13:41:58;50.38;;;46.25;;
9801;SDS011;4940;50.900;4.672;2023-12-20T13:44:25;49.90;;;45.92;;
9801;SDS011;4940;50.900;4.672;2023-12-20T13:46:52;47.20;;;43.30;;
9801;SDS011;4940;50.900;4.672;2023-12-20T13:49:19;47.22;;;43.33;;
9801;SDS011;4940;50.900;4.672;2023-12-20T13:51:50;45.35;;;41.75;;
9801;SDS011;4940;50.900;4.672;2023-12-20T13:54:20;45.17;;;41.22;;
9801;SDS011;4940;50.900;4.672;2023-12-20T13:56:48;43.75;;;40.00;;
9801;SDS011;4940;50.900;4.672;2023-12-20T13:59:16;47.58;;;43.72;;
9801;SDS011;4940;50.900;4.672;2023-12-20T14:01:43;45.60;;;41.70;;
9801;SDS011;4940;50.900;4.672;2023-12-20T14:04:11;45.53;;;41.58;;
9801;SDS011;4940;50.900;4.672;2023-12-20T14:06:38;43.53;;;39.97;;
9801;SDS011;4940;50.900;4.672;2023-12-20T14:09:06;43.95;;;39.88;;
9801;SDS011;4940;50.900;4.672;2023-12-20T14:11:33;41.75;;;38.45;;
9801;SDS011;4940;50.900;4.672;2023-12-20T14:14:06;36.63;;;33.45;;
9801;SDS011;4940;50.900;4.672;2023-12-20T14:16:35;39.38;;;35.35;;
9801;SDS011;4940;50.900;4.672;2023-12-20T14:19:03;40.60;;;36.80;;
9801;SDS011;4940;50.900;4.672;2023-12-20T14:21:32;40.75;;;37.35;;
9801;SDS011;4940;50.900;4.672;2023-12-20T14:24:00;39.38;;;35.83;;
9801;SDS011;4940;50.900;4.672;2023-12-20T14:26:29;40.42;;;36.83;;
9801;SDS011;4940;50.900;4.672;2023-12-20T14:28:57;38.33;;;35.00;;
9801;SDS011;4940;50.900;4.672;2023-12-20T14:31:24;38.35;;;35.22;;
9801;SDS011;4940;50.900;4.672;2023-12-20T14:33:53;40.75;;;36.95;;
9801;SDS011;4940;50.900;4.672;2023-12-20T14:36:21;40.88;;;37.38;;
9801;SDS011;4940;50.900;4.672;2023-12-20T14:38:48;40.00;;;36.42;;
9801;SDS011;4940;50.900;4.672;2023-12-20T14:41:16;39.38;;;35.83;;
9801;SDS011;4940;50.900;4.672;2023-12-20T14:43:44;41.45;;;37.95;;
9801;SDS011;4940;50.900;4.672;2023-12-20T14:46:12;38.85;;;35.75;;
9801;SDS011;4940;50.900;4.672;2023-12-20T14:48:40;42.00;;;38.30;;
9801;SDS011;4940;50.900;4.672;2023-12-20T14:51:09;42.58;;;39.38;;
9801;SDS011;4940;50.900;4.672;2023-12-20T14:53:37;38.20;;;35.10;;